Time;durP1;ratioP1;P1;durP2;ratioP2;P2;SDS_P1;SDS_P2;PMS_P1;PMS_P2;Temp;Humidity;BMP_temperature;BMP_pressure;BME280_temperature;BME280_humidity;BME280_pressure;Samples;Min_cycle;Max_cycle;Signal;HPM_P1;HPM_P2
2022/10/03 00:01:32;;;;;;;4.65;3.97;;;11.60;99.90;;;;;;5063501;28;20204;-87
2022/10/03 00:04:32;;;;;;;7.60;4.50;;;11.60;99.90;;;;;;5063612;28;20205;-86
2022/10/03 00:07:10;;;;;;;4.30;3.90;;;11.60;99.90;;;;;;5046418;28;20235;-86
2022/10/03 00:09:51;;;;;;;5.38;4.88;;;11.50;99.90;;;;;;5044178;28;20264;-87
2022/10/03 00:12:35;;;;;;;6.68;4.85;;;11.30;99.90;;;;;;5049033;28;20561;-87
2022/10/03 00:15:05;;;;;;;9.18;7.18;;;11.20;99.90;;;;;;5048772;28;20282;-86
2022/10/03 00:17:45;;;;;;;6.25;5.13;;;11.40;99.90;;;;;;5048897;28;20259;-87
2022/10/03 00:20:54;;;;;;;7.15;5.03;;;11.30;99.90;;;;;;5047220;28;20263;-86
2022/10/03 00:23:27;;;;;;;7.25;5.00;;;11.10;99.90;;;;;;5043199;28;20216;-87
2022/10/03 00:26:25;;;;;;;6.03;5.22;;;11.00;99.90;;;;;;5047768;28;20306;-87
2022/10/03 00:29:08;;;;;;;5.75;4.88;;;10.90;99.90;;;;;;5047384;28;20198;-87
2022/10/03 00:31:43;;;;;;;7.45;5.25;;;10.90;99.90;;;;;;5053850;28;20200;-86
2022/10/03 00:34:25;;;;;;;5.90;5.30;;;10.90;99.90;;;;;;5133481;27;20195;-86
2022/10/03 00:37:08;;;;;;;9.18;5.32;;;10.90;99.90;;;;;;5124404;27;20290;-86
2022/10/03 00:39:50;;;;;;;7.78;5.60;;;11.00;99.90;;;;;;5135632;28;20348;-86
2022/10/03 00:43:05;;;;;;;7.93;5.63;;;10.90;99.90;;;;;;5122573;27;21134;-87
2022/10/03 00:46:01;;;;;;;9.80;5.97;;;10.80;99.90;;;;;;5088934;28;20252;-87
2022/10/03 00:49:01;;;;;;;7.38;5.70;;;10.80;99.90;;;;;;5085645;28;20283;-86
2022/10/03 00:51:45;;;;;;;11.68;5.80;;;10.80;99.90;;;;;;5079911;28;20301;-87
2022/10/03 00:54:51;;;;;;;8.70;6.05;;;10.70;99.90;;;;;;5078777;28;20203;-86
2022/10/03 00:57:36;;;;;;;8.43;6.70;;;10.70;99.90;;;;;;5040063;28;20206;-87
2022/10/03 01:00:16;;;;;;;9.15;6.45;;;10.70;99.90;;;;;;5035285;28;20195;-87
2022/10/03 01:03:06;;;;;;;9.70;6.15;;;10.70;99.90;;;;;;5024263;28;20191;-87
2022/10/03 01:05:47;;;;;;;6.85;6.15;;;10.70;99.90;;;;;;5015265;28;20230;-87
2022/10/03 01:08:47;;;;;;;10.43;6.25;;;10.70;99.90;;;;;;5004193;28;20682;-87
2022/10/03 01:11:29;;;;;;;7.00;6.30;;;10.70;99.90;;;;;;4927941;29;20542;-87
2022/10/03 01:14:09;;;;;;;9.55;6.80;;;10.70;99.90;;;;;;4929630;29;20731;-87
2022/10/03 01:16:46;;;;;;;9.30;6.80;;;10.70;99.90;;;;;;4930652;29;20280;-87
2022/10/03 01:19:36;;;;;;;9.32;6.63;;;10.80;99.90;;;;;;4939609;28;20211;-87
2022/10/03 01:22:22;;;;;;;9.02;6.68;;;10.70;99.90;;;;;;4964721;28;20201;-87
2022/10/03 01:24:59;;;;;;;7.90;6.93;;;10.70;99.90;;;;;;4969746;28;20239;-86
2022/10/03 01:30:21;;;;;;;9.13;7.18;;;10.60;99.90;;;;;;4972259;28;20228;-86
2022/10/03 01:30:36;;;;;;;7.80;7.00;;;10.60;99.90;;;;;;4967399;28;20209;-87
2022/10/03 01:33:10;;;;;;;7.75;6.97;;;10.60;99.90;;;;;;4975975;28;20205;-87
2022/10/03 01:35:47;;;;;;;9.13;7.43;;;10.60;99.90;;;;;;5018639;28;20207;-87
2022/10/03 01:38:19;;;;;;;10.18;7.60;;;10.60;99.90;;;;;;5032774;28;20202;-87
2022/10/03 01:40:55;;;;;;;10.20;7.95;;;10.60;99.90;;;;;;5031826;28;20237;-87
2022/10/03 01:43:37;;;;;;;9.02;6.78;;;10.60;99.90;;;;;;5031180;28;20212;-86
2022/10/03 01:46:17;;;;;;;9.13;7.68;;;10.60;99.90;;;;;;5029689;28;20230;-87
2022/10/03 01:48:55;;;;;;;9.35;6.93;;;10.60;99.90;;;;;;5074950;27;20204;-86
2022/10/03 01:51:33;;;;;;;8.73;7.15;;;10.60;99.90;;;;;;5116084;27;20626;-86
2022/10/03 01:54:13;;;;;;;11.48;6.88;;;10.70;99.90;;;;;;5111792;27;20216;-86
2022/10/03 01:56:57;;;;;;;8.75;7.32;;;10.80;99.90;;;;;;5109267;28;20203;-86
2022/10/03 01:59:38;;;;;;;11.02;7.90;;;10.90;99.90;;;;;;5114815;28;20218;-86
2022/10/03 02:02:16;;;;;;;8.98;7.55;;;11.00;99.90;;;;;;5117128;28;20208;-87
2022/10/03 02:04:58;;;;;;;9.02;7.68;;;10.90;99.90;;;;;;5118607;28;20686;-86
2022/10/03 02:07:35;;;;;;;11.98;8.02;;;11.00;99.90;;;;;;5105181;28;20586;-87
2022/10/03 02:10:13;;;;;;;11.32;8.15;;;10.90;99.90;;;;;;5116075;28;20231;-86
2022/10/03 02:12:47;;;;;;;14.07;8.40;;;11.00;99.90;;;;;;5107321;28;20207;-86
2022/10/03 02:15:20;;;;;;;10.65;8.07;;;11.00;99.90;;;;;;5116098;28;20203;-86
2022/10/03 02:17:57;;;;;;;10.48;8.05;;;11.00;99.90;;;;;;5114141;28;20196;-86
2022/10/03 02:20:30;;;;;;;9.73;7.53;;;11.00;99.90;;;;;;5108581;28;20675;-86
2022/10/03 02:23:23;;;;;;;12.18;7.40;;;11.10;99.90;;;;;;5108076;28;20279;-86
2022/10/03 02:26:00;;;;;;;11.25;7.43;;;11.00;99.90;;;;;;5115485;28;20310;-86
2022/10/03 02:28:59;;;;;;;10.63;7.80;;;11.00;99.90;;;;;;5103240;28;20279;-86
2022/10/03 02:31:55;;;;;;;12.70;7.75;;;10.90;99.90;;;;;;5112776;28;20235;-86
2022/10/03 02:34:40;;;;;;;11.10;7.70;;;10.80;99.90;;;;;;5117674;28;20199;-87
2022/10/03 02:37:28;;;;;;;11.00;8.10;;;10.70;99.90;;;;;;5109251;28;20199;-87
2022/10/03 02:40:30;;;;;;;10.18;7.60;;;10.60;99.90;;;;;;5112516;28;20214;-86
2022/10/03 02:43:40;;;;;;;13.32;7.82;;;10.50;99.90;;;;;;5114952;28;20195;-87
2022/10/03 02:46:53;;;;;;;16.25;8.32;;;10.50;99.90;;;;;;5102894;28;20223;-87
2022/10/03 02:50:05;;;;;;;13.60;8.73;;;10.40;99.90;;;;;;5020233;28;20234;-87
2022/10/03 02:53:15;;;;;;;9.70;7.32;;;10.30;99.90;;;;;;5020027;28;20195;-87
2022/10/03 02:56:15;;;;;;;12.27;8.07;;;10.30;99.90;;;;;;5029086;28;20226;-87
2022/10/03 02:59:01;;;;;;;13.68;8.63;;;10.20;99.90;;;;;;5030579;28;20230;-87
2022/10/03 03:02:05;;;;;;;10.00;7.75;;;10.30;99.90;;;;;;5032562;28;20277;-86
2022/10/03 03:05:18;;;;;;;12.07;7.50;;;10.20;99.90;;;;;;5026499;28;20226;-86
2022/10/03 03:08:20;;;;;;;9.70;7.97;;;10.20;99.90;;;;;;4972922;28;20216;-87
2022/10/03 03:11:08;;;;;;;10.50;7.97;;;10.20;99.90;;;;;;4973468;28;20718;-86
2022/10/03 03:14:25;;;;;;;9.85;7.80;;;10.10;99.90;;;;;;4967109;28;20283;-87
2022/10/03 03:17:00;;;;;;;11.35;8.50;;;10.10;99.90;;;;;;4916012;29;20217;-86
2022/10/03 03:19:45;;;;;;;10.63;8.68;;;10.00;99.90;;;;;;4914039;29;20202;-86
2022/10/03 03:22:26;;;;;;;11.02;8.60;;;10.00;99.90;;;;;;4914499;29;20307;-87
2022/10/03 03:25:12;;;;;;;15.60;8.95;;;10.00;99.90;;;;;;4922204;28;20209;-87
2022/10/03 03:27:47;;;;;;;11.80;8.55;;;9.90;99.90;;;;;;4972687;28;20227;-86
2022/10/03 03:30:18;;;;;;;13.32;8.55;;;9.90;99.90;;;;;;4974142;28;20207;-86
2022/10/03 03:33:03;;;;;;;14.05;9.00;;;9.90;99.90;;;;;;4974566;28;20741;-86
2022/10/03 03:35:46;;;;;;;11.82;8.63;;;9.90;99.90;;;;;;4971875;28;20667;-87
2022/10/03 03:38:27;;;;;;;14.02;9.35;;;9.80;99.90;;;;;;5008831;28;20217;-86
2022/10/03 03:41:07;;;;;;;11.77;9.25;;;9.80;99.90;;;;;;5070263;28;20850;-87
2022/10/03 03:44:07;;;;;;;12.98;8.55;;;9.80;99.90;;;;;;5065605;28;20704;-87
2022/10/03 03:46:46;;;;;;;12.63;8.90;;;9.80;99.90;;;;;;5058310;28;20217;-86
2022/10/03 03:49:28;;;;;;;12.18;8.82;;;9.80;99.90;;;;;;5113490;28;20203;-87
2022/10/03 03:52:09;;;;;;;11.65;8.65;;;9.90;99.90;;;;;;5103992;28;20218;-86
2022/10/03 03:55:08;;;;;;;17.83;9.57;;;9.90;99.90;;;;;;5108362;28;20314;-86
2022/10/03 03:57:51;;;;;;;15.05;9.07;;;9.80;99.90;;;;;;5113275;28;20294;-86
2022/10/03 04:00:21;;;;;;;11.73;9.20;;;9.80;99.90;;;;;;5112515;28;20192;-86
2022/10/03 04:03:15;;;;;;;14.50;9.40;;;9.70;99.90;;;;;;5113100;28;20218;-86
2022/10/03 04:06:13;;;;;;;12.57;9.45;;;9.70;99.90;;;;;;5031622;28;20226;-86
2022/10/03 04:09:00;;;;;;;10.35;8.95;;;9.70;99.90;;;;;;5033299;28;20212;-86
2022/10/03 04:11:39;;;;;;;11.43;8.48;;;9.60;99.90;;;;;;5032551;28;20203;-87
2022/10/03 04:14:22;;;;;;;12.77;9.27;;;9.70;99.90;;;;;;5030261;28;20240;-87
2022/10/03 04:20:10;;;;;;;16.38;9.30;;;9.60;99.90;;;;;;5032276;28;20205;-87
2022/10/03 04:22:59;;;;;;;12.60;9.18;;;9.50;99.90;;;;;;5030840;28;20191;-87
2022/10/03 04:25:53;;;;;;;16.08;9.75;;;9.50;99.90;;;;;;5033619;28;20205;-86
2022/10/03 04:28:50;;;;;;;13.02;9.90;;;9.50;99.90;;;;;;5031479;28;20672;-87
2022/10/03 04:31:38;;;;;;;14.00;9.40;;;9.50;99.90;;;;;;5029687;28;20195;-87
2022/10/03 04:34:19;;;;;;;12.68;9.77;;;9.50;99.90;;;;;;5037755;28;20290;-86
2022/10/03 04:37:17;;;;;;;13.48;9.52;;;9.50;99.90;;;;;;5035287;28;20206;-86
2022/10/03 04:40:11;;;;;;;12.77;9.20;;;9.50;99.90;;;;;;5032556;28;20194;-86
2022/10/03 04:42:57;;;;;;;13.60;9.90;;;9.40;99.90;;;;;;5063895;28;20192;-87
2022/10/03 04:45:47;;;;;;;14.55;9.70;;;9.40;99.90;;;;;;5106933;28;20591;-87
2022/10/03 04:48:27;;;;;;;12.55;9.02;;;9.40;99.90;;;;;;5118547;28;20208;-86
2022/10/03 04:51:07;;;;;;;10.60;8.40;;;9.50;99.90;;;;;;5104246;28;20197;-87
2022/10/03 04:53:53;;;;;;;10.63;9.00;;;9.50;99.90;;;;;;5117256;28;20194;-86
2022/10/03 04:56:49;;;;;;;10.60;9.02;;;9.70;99.90;;;;;;5116170;28;20201;-87
2022/10/03 04:59:42;;;;;;;12.63;9.05;;;9.60;99.90;;;;;;5111568;27;20199;-87
2022/10/03 05:02:51;;;;;;;12.50;8.82;;;9.60;99.90;;;;;;5111698;28;20192;-87
2022/10/03 05:05:55;;;;;;;10.30;8.40;;;9.60;99.90;;;;;;5113152;28;20690;-86
2022/10/03 05:08:42;;;;;;;10.68;8.02;;;9.50;99.90;;;;;;5113171;28;20939;-87
2022/10/03 05:11:23;;;;;;;10.50;8.18;;;9.40;99.90;;;;;;5107879;28;20198;-87
2022/10/03 05:14:04;;;;;;;11.27;8.40;;;9.30;99.90;;;;;;5116445;28;20265;-87
2022/10/03 05:16:55;;;;;;;14.80;8.30;;;9.20;99.90;;;;;;5113757;28;20203;-86
2022/10/03 05:19:53;;;;;;;11.82;8.13;;;9.20;99.90;;;;;;5113960;28;20619;-86
2022/10/03 05:22:38;;;;;;;11.15;8.65;;;9.20;99.90;;;;;;5072659;28;20193;-87
2022/10/03 05:25:31;;;;;;;11.85;8.32;;;9.10;99.90;;;;;;5073025;28;20617;-87
2022/10/03 05:28:15;;;;;;;14.20;9.00;;;9.20;99.90;;;;;;5064546;28;20212;-87
2022/10/03 05:30:53;;;;;;;12.30;8.48;;;9.10;99.90;;;;;;5073094;28;20193;-87
2022/10/03 05:33:42;;;;;;;10.63;7.78;;;9.10;99.90;;;;;;5068657;28;20255;-87
2022/10/03 05:36:35;;;;;;;13.35;8.15;;;9.00;99.90;;;;;;5072709;28;20197;-87
2022/10/03 05:39:26;;;;;;;11.73;8.32;;;9.00;99.90;;;;;;5072895;28;20209;-87
2022/10/03 05:42:14;;;;;;;11.40;8.05;;;9.00;99.90;;;;;;5066859;28;20204;-86
2022/10/03 05:44:54;;;;;;;9.45;8.00;;;9.00;99.90;;;;;;5068864;28;20198;-87
2022/10/03 05:47:47;;;;;;;8.75;7.85;;;9.00;99.90;;;;;;5066024;28;20610;-87
2022/10/03 05:50:56;;;;;;;10.60;8.30;;;8.90;99.90;;;;;;5062266;28;20205;-87
2022/10/03 05:54:02;;;;;;;12.13;8.48;;;9.00;99.90;;;;;;5071675;28;20239;-87
2022/10/03 05:56:52;;;;;;;9.90;7.63;;;8.90;99.90;;;;;;5073567;28;20197;-87
2022/10/03 06:00:07;;;;;;;13.60;7.63;;;8.80;99.90;;;;;;5094474;28;20269;-87
2022/10/03 06:03:14;;;;;;;10.27;7.22;;;8.80;99.90;;;;;;5029836;28;20302;-87
2022/10/03 06:06:19;;;;;;;11.13;7.95;;;8.90;99.90;;;;;;5021120;28;20729;-87
2022/10/03 06:09:33;;;;;;;8.90;7.43;;;9.00;99.90;;;;;;4994872;28;20778;-86
2022/10/03 06:12:13;;;;;;;11.30;7.35;;;9.10;99.90;;;;;;5023489;28;20203;-86
2022/10/03 06:15:13;;;;;;;7.78;6.63;;;9.30;99.90;;;;;;5028960;28;20202;-86
2022/10/03 06:18:07;;;;;;;9.25;7.03;;;9.40;99.90;;;;;;5035851;28;20697;-87
2022/10/03 06:21:24;;;;;;;12.45;7.07;;;9.50;99.90;;;;;;5040624;28;20209;-87
2022/10/03 06:24:25;;;;;;;7.35;6.60;;;9.40;99.90;;;;;;4997303;28;20282;-86
2022/10/03 06:27:36;;;;;;;7.90;6.32;;;9.50;99.90;;;;;;4981938;28;20626;-86
2022/10/03 06:30:13;;;;;;;8.60;6.82;;;9.70;99.90;;;;;;4945901;29;20253;-86
2022/10/03 06:33:16;;;;;;;7.93;6.28;;;9.80;99.90;;;;;;4934966;29;20264;-86
2022/10/03 06:36:24;;;;;;;9.88;7.13;;;9.80;99.90;;;;;;4948491;29;20208;-86
2022/10/03 06:39:25;;;;;;;9.23;7.22;;;9.70;99.90;;;;;;4957395;28;20290;-86
2022/10/03 06:42:25;;;;;;;7.97;6.80;;;9.70;99.90;;;;;;5015969;28;20201;-86
2022/10/03 06:45:30;;;;;;;9.52;7.05;;;9.70;99.90;;;;;;5031006;28;20289;-86
2022/10/03 06:48:32;;;;;;;8.95;7.13;;;9.70;99.90;;;;;;5026636;28;20309;-86
2022/10/03 06:51:31;;;;;;;8.45;6.43;;;9.80;99.90;;;;;;5034946;28;20224;-86
2022/10/03 06:54:33;;;;;;;10.40;7.07;;;9.90;99.90;;;;;;5017848;28;20254;-86
2022/10/03 06:57:28;;;;;;;11.95;7.35;;;10.00;99.90;;;;;;4951145;29;20201;-86
2022/10/03 07:00:14;;;;;;;11.73;7.18;;;10.00;99.90;;;;;;4954901;28;20197;-87
2022/10/03 07:03:21;;;;;;;10.27;7.30;;;10.10;99.90;;;;;;4954970;29;20542;-86
2022/10/03 07:06:06;;;;;;;9.48;6.90;;;10.20;99.90;;;;;;4967868;28;20219;-86
2022/10/03 07:09:18;;;;;;;9.95;6.68;;;10.30;99.90;;;;;;5034591;28;20222;-86
2022/10/03 07:12:32;;;;;;;11.77;7.55;;;10.40;99.90;;;;;;5024471;28;20267;-86
2022/10/03 07:15:36;;;;;;;8.70;6.93;;;10.40;99.90;;;;;;4972485;28;20208;-86
2022/10/03 07:18:39;;;;;;;9.55;6.50;;;10.50;99.90;;;;;;4967253;28;20213;-86
2022/10/03 07:21:41;;;;;;;11.25;6.70;;;10.70;99.90;;;;;;4976650;28;20207;-86
2022/10/03 07:24:54;;;;;;;7.75;6.40;;;10.80;99.90;;;;;;4953106;29;20201;-86
2022/10/03 07:27:40;;;;;;;7.90;5.80;;;11.00;99.90;;;;;;4921738;29;20309;-86
2022/10/03 07:30:23;;;;;;;10.32;6.15;;;11.10;99.90;;;;;;4923939;29;20285;-86
2022/10/03 07:33:36;;;;;;;11.05;5.82;;;11.30;99.90;;;;;;4922223;29;20274;-86
2022/10/03 07:40:00;;;;;;;10.88;6.00;;;11.50;99.90;;;;;;4878459;29;20200;-86
2022/10/03 07:42:58;;;;;;;8.25;5.90;;;11.60;99.90;;;;;;4880253;29;20199;-86
2022/10/03 07:45:34;;;;;;;8.15;5.93;;;11.70;99.90;;;;;;4877253;29;20205;-86
2022/10/03 07:48:35;;;;;;;8.07;6.15;;;11.80;99.90;;;;;;4881022;29;20236;-87
2022/10/03 07:51:13;;;;;;;8.90;6.05;;;12.10;99.90;;;;;;4884643;29;20235;-86
2022/10/03 07:54:16;;;;;;;9.35;5.97;;;12.10;99.90;;;;;;4916447;29;20583;-86
2022/10/03 07:57:11;;;;;;;6.75;6.00;;;12.20;99.90;;;;;;4918029;29;20210;-86
2022/10/03 08:00:15;;;;;;;11.40;6.50;;;12.20;99.90;;;;;;4919569;29;20221;-87
2022/10/03 08:03:19;;;;;;;12.55;6.45;;;12.10;99.70;;;;;;4963357;28;20282;-86
2022/10/03 08:06:15;;;;;;;9.07;6.30;;;12.10;99.90;;;;;;4918223;29;20801;-86
2022/10/03 08:09:22;;;;;;;10.63;6.45;;;12.00;99.90;;;;;;4917057;29;20234;-87
2022/10/03 08:12:33;;;;;;;10.55;6.30;;;12.00;99.70;;;;;;4919957;29;20205;-86
2022/10/03 08:15:10;;;;;;;12.95;6.72;;;12.00;99.80;;;;;;4878871;29;20293;-86
2022/10/03 08:18:18;;;;;;;9.90;6.40;;;11.90;99.90;;;;;;4974486;28;20333;-85
2022/10/03 08:20:55;;;;;;;16.00;7.60;;;12.00;99.80;;;;;;4965564;28;20248;-86
2022/10/03 08:24:06;;;;;;;11.95;7.18;;;11.90;99.00;;;;;;4961527;28;20939;-86
2022/10/03 08:27:05;;;;;;;9.20;6.55;;;11.80;99.20;;;;;;4952250;28;20673;-86
2022/10/03 08:30:15;;;;;;;11.85;7.55;;;11.80;98.80;;;;;;4908376;29;20282;-87
2022/10/03 08:33:30;;;;;;;10.07;7.32;;;11.80;99.00;;;;;;4903821;29;20207;-87
2022/10/03 08:36:33;;;;;;;10.65;7.43;;;11.60;98.70;;;;;;4858319;29;20278;-86
2022/10/03 08:39:27;;;;;;;11.57;7.53;;;11.70;99.40;;;;;;4861982;29;20295;-86
2022/10/03 08:45:38;;;;;;;9.82;6.90;;;12.10;99.00;;;;;;4852587;29;20213;-87
2022/10/03 08:48:53;;;;;;;12.10;7.20;;;12.10;98.60;;;;;;4849767;29;20231;-87
2022/10/03 08:52:02;;;;;;;18.58;10.60;;;12.10;98.70;;;;;;4875411;29;20290;-87
2022/10/03 08:54:55;;;;;;;12.57;7.50;;;12.20;99.90;;;;;;4918955;29;20294;-86
2022/10/03 08:57:54;;;;;;;11.63;7.18;;;12.30;98.20;;;;;;4921726;29;20289;-86
2022/10/03 09:00:23;;;;;;;14.80;8.93;;;12.40;98.30;;;;;;4921013;29;20223;-86
2022/10/03 09:03:45;;;;;;;18.48;9.35;;;12.50;98.30;;;;;;4923443;29;20281;-87
2022/10/03 09:06:45;;;;;;;83.45;57.97;;;12.90;97.90;;;;;;4941911;28;20223;-87
2022/10/03 09:09:40;;;;;;;15.20;10.45;;;13.10;96.70;;;;;;5054387;28;20284;-86
2022/10/03 09:12:41;;;;;;;17.40;12.38;;;13.00;95.90;;;;;;5051921;28;20209;-87
2022/10/03 09:15:43;;;;;;;22.42;13.95;;;13.20;96.50;;;;;;5054776;28;20582;-87
2022/10/03 09:18:44;;;;;;;11.65;7.38;;;13.60;95.70;;;;;;5062303;28;20196;-87
2022/10/03 09:21:51;;;;;;;15.73;9.38;;;13.60;94.60;;;;;;5100282;28;20590;-87
2022/10/03 09:24:43;;;;;;;8.48;6.82;;;13.80;94.50;;;;;;5114865;28;20202;-87
2022/10/03 09:27:42;;;;;;;11.30;6.82;;;13.40;93.70;;;;;;5071485;28;20648;-88
2022/10/03 09:30:33;;;;;;;13.18;6.90;;;13.40;95.40;;;;;;4970145;28;20307;-87
2022/10/03 09:33:49;;;;;;;12.20;6.63;;;13.80;92.50;;;;;;4971522;28;20660;-87
2022/10/03 09:36:54;;;;;;;7.55;5.15;;;14.00;92.50;;;;;;4964751;28;20196;-89
2022/10/03 09:39:55;;;;;;;7.15;5.75;;;14.70;91.70;;;;;;4972472;28;20197;-89
2022/10/03 09:43:03;;;;;;;9.70;5.80;;;15.50;87.30;;;;;;4972550;28;20789;-91
2022/10/03 09:45:51;;;;;;;6.43;5.47;;;15.70;85.70;;;;;;4977757;28;20203;-84
2022/10/03 09:48:45;;;;;;;12.50;4.63;;;16.50;79.00;;;;;;4976604;28;20293;-84
2022/10/03 09:51:37;;;;;;;10.05;4.07;;;17.70;73.20;;;;;;4973496;28;20216;-81
2022/10/03 09:54:54;;;;;;;5.32;3.75;;;18.70;54.70;;;;;;4976306;28;20215;-84
2022/10/03 09:57:50;;;;;;;8.43;4.45;;;18.90;46.80;;;;;;4972507;28;20200;-84
2022/10/03 10:00:40;;;;;;;8.52;4.20;;;19.30;42.40;;;;;;4974419;28;20204;-84
2022/10/03 10:03:59;;;;;;;7.65;3.92;;;18.70;40.40;;;;;;4972176;28;20192;-83
2022/10/03 10:06:40;;;;;;;5.97;3.72;;;18.00;41.90;;;;;;4987377;28;20219;-81
2022/10/03 10:09:46;;;;;;;7.95;3.95;;;17.40;53.50;;;;;;5073844;28;20213;-80
2022/10/03 10:12:45;;;;;;;5.68;4.43;;;16.60;55.10;;;;;;5052698;28;20201;-83
2022/10/03 10:15:38;;;;;;;11.05;5.40;;;16.10;65.00;;;;;;5081451;28;20205;-82
2022/10/03 10:18:35;;;;;;;8.50;5.18;;;15.60;72.20;;;;;;5071707;28;20208;-86
2022/10/03 10:21:45;;;;;;;20.20;15.07;;;15.20;77.40;;;;;;5070398;28;20266;-84
2022/10/03 10:24:51;;;;;;;10.73;5.45;;;15.10;87.90;;;;;;5066265;28;20620;-86
2022/10/03 10:28:05;;;;;;;9.07;5.85;;;15.10;90.50;;;;;;5066218;28;20193;-85
2022/10/03 10:31:25;;;;;;;11.00;6.72;;;15.50;81.30;;;;;;5027742;28;20201;-84
2022/10/03 10:34:35;;;;;;;6.05;4.10;;;16.20;78.10;;;;;;4980428;28;20200;-88
2022/10/03 10:37:41;;;;;;;4.80;3.60;;;16.90;73.20;;;;;;4962049;28;20258;-84
2022/10/03 10:40:36;;;;;;;6.15;4.00;;;17.30;59.60;;;;;;4989038;28;20208;-81
2022/10/03 10:43:42;;;;;;;5.95;3.97;;;17.70;53.80;;;;;;4994360;28;20200;-81
2022/10/03 10:46:58;;;;;;;4.43;3.80;;;18.40;46.10;;;;;;4980986;28;20763;-83
2022/10/03 10:50:02;;;;;;;8.02;4.00;;;19.20;38.00;;;;;;4989239;28;20219;-84
2022/10/03 10:53:19;;;;;;;7.30;3.67;;;19.10;36.00;;;;;;4990919;28;20286;-81
2022/10/03 10:56:33;;;;;;;6.53;3.38;;;18.10;37.30;;;;;;4993608;28;20206;-82
2022/10/03 10:59:42;;;;;;;7.60;3.78;;;17.40;43.70;;;;;;4995392;28;20255;-84
2022/10/03 11:03:03;;;;;;;6.97;3.80;;;16.30;51.30;;;;;;4992892;28;20194;-85
2022/10/03 11:06:08;;;;;;;7.22;3.47;;;16.00;62.00;;;;;;4971042;28;20224;-84
2022/10/03 11:09:17;;;;;;;7.05;3.00;;;16.10;62.40;;;;;;4973973;28;20224;-83
2022/10/03 11:12:17;;;;;;;7.00;3.60;;;16.10;63.00;;;;;;5013201;28;20642;-84
2022/10/03 11:15:20;;;;;;;8.65;3.58;;;16.00;54.20;;;;;;5061212;28;20641;-84
2022/10/03 11:18:23;;;;;;;5.60;3.30;;;16.20;68.30;;;;;;5065043;28;20197;-84
2022/10/03 11:21:53;;;;;;;6.10;2.75;;;16.60;66.30;;;;;;5061226;28;20208;-84
2022/10/03 11:25:01;;;;;;;4.13;2.83;;;16.30;52.50;;;;;;5070841;28;20197;-84
2022/10/03 11:28:13;;;;;;;5.18;3.10;;;16.20;49.00;;;;;;5059841;28;20194;-84
2022/10/03 11:31:15;;;;;;;8.10;3.33;;;15.60;62.00;;;;;;5065089;28;20280;-84
2022/10/03 11:34:21;;;;;;;6.65;3.35;;;15.40;59.70;;;;;;5062171;28;20200;-84
2022/10/03 11:37:14;;;;;;;57.40;47.22;;;15.60;62.30;;;;;;5061316;28;20199;-84
2022/10/03 11:39:48;;;;;;;7.43;3.50;;;15.90;60.10;;;;;;5059023;28;20856;-85
2022/10/03 11:42:32;;;;;;;7.28;3.08;;;16.00;58.40;;;;;;5105619;28;20571;-85
2022/10/03 11:45:07;;;;;;;5.03;3.30;;;16.00;56.20;;;;;;5107042;28;20211;-85
2022/10/03 11:47:51;;;;;;;5.68;2.75;;;16.10;48.90;;;;;;5112020;28;20216;-84
2022/10/03 11:50:32;;;;;;;5.80;2.83;;;16.10;49.00;;;;;;5099984;28;20221;-85
2022/10/03 11:53:28;;;;;;;5.07;3.05;;;16.10;44.90;;;;;;5108154;28;20192;-84
2022/10/03 11:56:11;;;;;;;5.22;3.03;;;16.00;45.00;;;;;;5103174;28;20200;-85
2022/10/03 11:59:03;;;;;;;5.60;2.70;;;16.30;44.10;;;;;;5102905;28;20220;-85
2022/10/03 12:01:54;;;;;;;5.28;2.83;;;16.30;42.30;;;;;;5071793;28;20201;-84
2022/10/03 12:04:31;;;;;;;7.20;3.03;;;16.60;38.30;;;;;;5062583;28;20862;-85
2022/10/03 12:10:41;;;;;;;6.75;3.17;;;16.40;38.80;;;;;;5074030;28;20263;-85
2022/10/03 12:13:15;;;;;;;6.78;3.17;;;15.90;45.80;;;;;;5070423;28;20203;-85
2022/10/03 12:15:46;;;;;;;4.13;3.00;;;15.70;50.50;;;;;;5069241;28;20201;-85
2022/10/03 12:18:19;;;;;;;6.80;3.17;;;15.70;48.10;;;;;;5067156;28;20205;-85
2022/10/03 12:21:06;;;;;;;8.38;2.92;;;15.80;44.60;;;;;;5063285;28;20190;-84
2022/10/03 12:27:17;;;;;;;5.70;3.08;;;15.60;51.90;;;;;;5067978;28;20200;-86
2022/10/03 12:29:54;;;;;;;6.40;2.80;;;15.70;52.60;;;;;;5067697;28;20310;-86
2022/10/03 12:32:48;;;;;;;5.35;2.70;;;16.00;49.20;;;;;;5068566;28;20209;-86
2022/10/03 12:35:30;;;;;;;5.75;3.22;;;16.20;45.30;;;;;;5064547;28;20216;-87
2022/10/03 12:38:20;;;;;;;5.93;2.83;;;16.60;42.50;;;;;;5079302;28;20208;-87
2022/10/03 12:41:10;;;;;;;4.97;3.30;;;16.90;37.20;;;;;;5102803;28;20275;-87
2022/10/03 12:44:03;;;;;;;6.30;3.03;;;16.80;38.40;;;;;;5103795;28;20200;-86
2022/10/03 12:46:40;;;;;;;5.28;3.15;;;16.90;37.50;;;;;;5109893;28;20212;-86
2022/10/03 12:49:15;;;;;;;7.40;2.90;;;17.10;37.00;;;;;;5104573;28;20223;-86
2022/10/03 12:51:55;;;;;;;6.68;3.28;;;17.10;38.90;;;;;;5104850;28;20191;-86
2022/10/03 12:54:39;;;;;;;5.80;3.00;;;17.10;39.30;;;;;;5113054;27;20202;-86
2022/10/03 12:57:39;;;;;;;7.57;3.30;;;17.20;37.30;;;;;;5104548;28;20201;-86
2022/10/03 13:00:19;;;;;;;8.30;3.45;;;17.00;37.20;;;;;;5103692;28;20280;-85
2022/10/03 13:03:18;;;;;;;6.28;3.20;;;16.90;37.00;;;;;;5107360;28;20275;-85
2022/10/03 13:06:32;;;;;;;6.72;2.85;;;16.60;41.70;;;;;;5103286;27;20707;-85
2022/10/03 13:09:26;;;;;;;4.72;2.88;;;16.30;39.80;;;;;;5106615;28;20286;-86
2022/10/03 13:12:15;;;;;;;6.97;2.90;;;16.00;44.60;;;;;;5106806;27;20204;-85
2022/10/03 13:15:21;;;;;;;6.05;2.80;;;15.70;47.80;;;;;;5105444;27;20268;-85
2022/10/03 13:18:09;;;;;;;4.10;3.00;;;15.40;45.90;;;;;;5121656;27;20193;-85
2022/10/03 13:20:39;;;;;;;5.22;2.65;;;15.30;49.00;;;;;;5119369;27;20200;-85
2022/10/03 13:23:18;;;;;;;4.95;2.90;;;15.20;48.30;;;;;;5113771;27;20187;-85
2022/10/03 13:25:53;;;;;;;5.13;2.92;;;15.00;50.20;;;;;;5116906;27;20203;-85
2022/10/03 13:28:30;;;;;;;5.00;2.83;;;14.90;49.10;;;;;;5109693;27;20201;-84
2022/10/03 13:31:11;;;;;;;5.82;2.90;;;14.70;51.10;;;;;;5109973;28;20235;-84
2022/10/03 13:33:51;;;;;;;5.45;3.00;;;14.50;50.90;;;;;;5106686;27;20680;-84
2022/10/03 13:36:30;;;;;;;5.85;2.75;;;14.50;50.90;;;;;;5112224;27;20227;-85
2022/10/03 13:39:22;;;;;;;4.75;2.80;;;14.70;51.10;;;;;;5113409;27;20200;-84
2022/10/03 13:42:07;;;;;;;7.78;3.10;;;14.80;52.90;;;;;;5105886;27;20193;-84
2022/10/03 13:44:40;;;;;;;6.95;3.42;;;14.90;56.60;;;;;;5103544;27;20212;-84
2022/10/03 13:47:27;;;;;;;5.95;3.10;;;14.80;55.00;;;;;;5101484;28;20204;-84
2022/10/03 13:50:18;;;;;;;6.72;3.60;;;14.70;57.70;;;;;;5113244;28;20223;-85
2022/10/03 13:53:39;;;;;;;4.00;3.38;;;14.60;61.30;;;;;;5098327;28;20932;-85
2022/10/03 13:56:14;;;;;;;5.85;3.67;;;14.60;64.60;;;;;;5109830;28;20264;-85
2022/10/03 13:58:52;;;;;;;6.25;3.80;;;14.60;68.40;;;;;;5109705;28;20279;-85
2022/10/03 14:01:41;;;;;;;9.38;4.00;;;14.60;70.60;;;;;;5108253;28;20200;-84
2022/10/03 14:04:32;;;;;;;7.88;3.53;;;14.50;74.30;;;;;;5103207;28;20198;-84
2022/10/03 14:07:13;;;;;;;4.75;3.38;;;14.50;70.40;;;;;;5121239;28;20200;-84
2022/10/03 14:10:08;;;;;;;9.13;3.40;;;14.70;69.90;;;;;;5117779;28;20207;-85
2022/10/03 14:12:54;;;;;;;6.60;3.65;;;14.70;74.00;;;;;;5113884;28;20556;-85
2022/10/03 14:15:43;;;;;;;7.18;3.22;;;14.70;69.60;;;;;;5114102;28;20203;-86
2022/10/03 14:18:25;;;;;;;6.63;2.97;;;14.80;64.30;;;;;;5109071;28;20214;-85
2022/10/03 14:21:33;;;;;;;7.78;3.67;;;14.90;63.00;;;;;;5112501;27;20556;-85
2022/10/03 14:24:12;;;;;;;6.75;5.20;;;14.80;57.70;;;;;;5113661;28;20195;-86
2022/10/03 14:26:50;;;;;;;7.28;4.60;;;14.80;61.10;;;;;;5105559;28;20194;-86
2022/10/03 14:29:48;;;;;;;8.02;4.53;;;14.80;67.50;;;;;;5116165;27;20221;-84
2022/10/03 14:32:21;;;;;;;7.15;3.15;;;14.80;65.60;;;;;;5108476;27;20206;-85
2022/10/03 14:35:08;;;;;;;7.60;2.90;;;14.70;66.40;;;;;;5102490;28;20229;-84
2022/10/03 14:37:54;;;;;;;5.10;3.20;;;14.90;61.50;;;;;;5108984;27;20193;-85
2022/10/03 14:40:29;;;;;;;6.30;3.17;;;14.90;65.10;;;;;;5098486;27;20957;-85
2022/10/03 14:43:27;;;;;;;8.57;3.30;;;15.00;65.40;;;;;;5104166;28;20219;-85
2022/10/03 14:45:57;;;;;;;5.63;3.00;;;15.10;64.10;;;;;;5114781;27;20227;-85
2022/10/03 14:48:31;;;;;;;5.18;2.97;;;15.20;63.70;;;;;;5117808;27;20562;-86
2022/10/03 14:51:21;;;;;;;7.00;3.17;;;15.20;58.20;;;;;;5112120;27;20240;-85
2022/10/03 14:54:01;;;;;;;7.63;3.00;;;15.40;59.00;;;;;;5102119;27;20196;-85
2022/10/03 14:56:33;;;;;;;7.03;3.20;;;15.30;58.00;;;;;;5107364;27;20222;-85
2022/10/03 14:59:12;;;;;;;10.27;3.10;;;15.20;57.60;;;;;;5099376;28;20279;-84
2022/10/03 15:02:27;;;;;;;5.93;3.33;;;15.00;61.90;;;;;;5102928;28;20587;-84
2022/10/03 15:05:14;;;;;;;6.20;2.50;;;14.90;61.30;;;;;;5110320;27;20220;-85
2022/10/03 15:07:47;;;;;;;6.45;2.60;;;14.80;61.00;;;;;;5102657;27;20243;-84
2022/10/03 15:10:30;;;;;;;6.47;2.60;;;14.80;61.60;;;;;;5105864;27;20226;-85